createdAt,value
2023-04-16T00:02:12.734Z,13.63
2023-04-16T00:12:16.328Z,17.80
2023-04-16T00:22:20.708Z,25.13
2023-04-16T00:32:23.926Z,13.73
2023-04-16T00:42:28.758Z,15.07
2023-04-16T00:52:33.693Z,13.63
2023-04-16T01:12:43.892Z,16.33
2023-04-16T01:22:48.241Z,18.17
2023-04-16T01:32:51.390Z,16.27
2023-04-16T01:42:56.097Z,21.25
2023-04-16T01:52:59.183Z,19.50
2023-04-16T02:03:03.758Z,23.52
2023-04-16T02:13:06.906Z,22.98
2023-04-16T02:23:11.977Z,23.60
2023-04-16T02:33:15.384Z,22.30
2023-04-16T02:43:30.189Z,22.85
2023-04-16T02:53:33.226Z,18.47
2023-04-16T03:03:37.557Z,23.77
2023-04-16T03:13:40.771Z,20.40
2023-04-16T03:23:46.261Z,23.53
2023-04-16T03:33:49.250Z,27.20
2023-04-16T03:43:53.647Z,28.30
2023-04-16T03:53:56.666Z,32.83
2023-04-16T04:04:03.557Z,31.88
2023-04-16T04:14:07.068Z,31.63
2023-04-16T04:24:11.785Z,31.40
2023-04-16T04:34:14.911Z,42.17
2023-04-16T04:44:19.861Z,33.67
2023-04-16T04:54:22.958Z,35.77
2023-04-16T05:04:27.434Z,40.17
2023-04-16T05:14:30.458Z,37.93
2023-04-16T05:24:34.889Z,33.38
2023-04-16T05:34:37.880Z,39.43
2023-04-16T05:44:42.995Z,32.38
2023-04-16T06:04:50.110Z,37.85
2023-04-16T06:14:53.140Z,40.43
2023-04-16T06:24:57.622Z,36.28
2023-04-16T06:35:00.714Z,34.20
2023-04-16T06:45:05.952Z,40.40
2023-04-16T06:55:09.876Z,34.67
2023-04-16T07:05:14.298Z,30.30
2023-04-16T07:15:17.400Z,28.07
2023-04-16T07:25:21.975Z,44.95
2023-04-16T07:35:25.580Z,47.20
2023-04-16T07:45:30.712Z,45.60
2023-04-16T07:55:33.790Z,45.75
2023-04-16T08:05:38.134Z,49.72
2023-04-16T08:15:41.244Z,52.37
2023-04-16T08:25:45.704Z,51.58
2023-04-16T08:35:48.812Z,48.70
2023-04-16T08:45:56.415Z,54.05
2023-04-16T08:56:03.651Z,48.17
2023-04-16T09:06:09.000Z,50.47
2023-04-16T09:16:13.802Z,50.58
2023-04-16T09:26:18.496Z,52.60
2023-04-16T09:36:24.653Z,49.85
2023-04-16T09:46:32.854Z,47.25
2023-04-16T09:56:41.104Z,51.50
2023-04-16T10:06:48.553Z,46.53
2023-04-16T10:16:52.234Z,40.28
2023-04-16T10:26:57.209Z,41.33
2023-04-16T10:37:00.283Z,43.75
2023-04-16T10:47:11.118Z,51.95
2023-04-16T10:57:17.940Z,43.45
2023-04-16T11:07:32.620Z,39.58
2023-04-16T11:17:40.007Z,37.77
2023-04-16T11:27:44.487Z,38.25
2023-04-16T11:37:49.066Z,42.80
2023-04-16T11:47:56.921Z,34.33
2023-04-16T11:58:12.830Z,35.25
2023-04-16T12:08:30.761Z,29.65
2023-04-16T12:18:33.878Z,32.38
2023-04-16T12:28:39.381Z,31.30
2023-04-16T12:38:43.372Z,29.48
2023-04-16T12:48:49.819Z,26.77
2023-04-16T12:58:52.933Z,25.77
2023-04-16T13:08:57.547Z,24.77
2023-04-16T13:19:00.907Z,28.55
2023-04-16T13:29:05.568Z,26.65
2023-04-16T13:39:11.726Z,30.00
2023-04-16T13:49:16.651Z,36.03
2023-04-16T13:59:23.984Z,35.40
2023-04-16T14:09:29.140Z,22.85
2023-04-16T14:19:32.210Z,32.40
2023-04-16T14:29:37.637Z,35.10
2023-04-16T14:39:40.869Z,28.10
2023-04-16T14:49:45.724Z,26.73
2023-04-16T15:09:53.600Z,32.42
2023-04-16T15:19:56.642Z,28.98
2023-04-16T15:30:01.204Z,26.13
2023-04-16T15:40:05.617Z,34.00
2023-04-16T15:50:10.725Z,34.03
2023-04-16T16:00:17.094Z,30.80
2023-04-16T16:10:21.673Z,38.03
2023-04-16T16:20:25.311Z,32.97
2023-04-16T16:30:30.039Z,34.88
2023-04-16T16:40:33.324Z,31.23
2023-04-16T16:50:37.882Z,35.45
2023-04-16T17:00:40.997Z,33.65
2023-04-16T17:10:45.437Z,36.25
2023-04-16T17:20:48.472Z,37.60
2023-04-16T17:30:54.311Z,42.60
2023-04-16T17:40:57.436Z,30.40
2023-04-16T17:51:10.439Z,38.10
2023-04-16T18:01:15.117Z,35.15
2023-04-16T18:11:19.527Z,37.90
2023-04-16T18:21:22.494Z,39.10
2023-04-16T18:31:27.022Z,35.88
2023-04-16T18:41:30.849Z,37.28
2023-04-16T18:51:35.496Z,38.25
2023-04-16T19:01:38.606Z,42.42
2023-04-16T19:11:43.228Z,37.25
2023-04-16T19:21:46.402Z,34.53
2023-04-16T19:31:51.520Z,35.60
2023-04-16T19:41:54.625Z,42.60
2023-04-16T19:51:59.092Z,37.97
2023-04-16T20:02:02.230Z,39.90
2023-04-16T20:12:07.080Z,39.17
2023-04-16T20:22:10.084Z,40.55
2023-04-16T20:32:14.394Z,42.25
2023-04-16T20:42:18.072Z,30.10
2023-04-16T20:52:22.677Z,43.63
2023-04-16T21:02:28.066Z,47.13
2023-04-16T21:12:32.900Z,42.55
2023-04-16T21:22:35.895Z,30.10
2023-04-16T21:32:40.271Z,43.20
2023-04-16T21:42:44.369Z,51.17
2023-04-16T21:52:49.208Z,34.40
2023-04-16T22:13:01.768Z,45.70
2023-04-16T22:23:04.822Z,58.65
2023-04-16T22:33:09.223Z,55.22
2023-04-16T22:43:12.272Z,53.13
2023-04-16T22:53:16.845Z,55.22
2023-04-16T23:03:20.057Z,55.37
2023-04-16T23:13:24.428Z,74.05
2023-04-16T23:23:27.437Z,49.63
2023-04-16T23:33:31.777Z,65.18
2023-04-16T23:43:35.929Z,57.70
2023-04-16T23:53:40.833Z,55.67
